Time;durP1;ratioP1;P1;durP2;ratioP2;P2;SDS_P1;SDS_P2;PMS_P1;PMS_P2;Temp;Humidity;BMP_temperature;BMP_pressure;BME280_temperature;BME280_humidity;BME280_pressure;Samples;Min_cycle;Max_cycle;Signal;HPM_P1;HPM_P2
2022/01/25 00:08:53;;;;;;;90.73;45.87;;;;;;;0.99;100.00;101822.50;15262329;19;20136;-49
2022/01/25 00:24:48;;;;;;;98.83;46.00;;;;;;;1.04;100.00;101810.25;15249828;19;20145;-48
2022/01/25 00:30:21;;;;;;;73.43;41.87;;;;;;;1.08;100.00;101801.50;15252891;19;20172;-49
2022/01/25 00:35:24;;;;;;;82.80;43.33;;;;;;;1.07;100.00;101810.25;15272404;19;20152;-46
2022/01/25 00:40:28;;;;;;;92.13;44.53;;;;;;;1.11;100.00;101794.47;15273008;19;20228;-49
2022/01/25 00:45:33;;;;;;;79.90;40.87;;;;;;;1.13;100.00;101792.72;15261142;19;20176;-50
2022/01/25 00:50:41;;;;;;;77.33;42.10;;;;;;;1.13;100.00;101790.09;15243174;19;20462;-47
2022/01/25 00:55:45;;;;;;;84.77;41.73;;;;;;;1.13;100.00;101774.31;15266325;19;20217;-46
2022/01/25 01:00:50;;;;;;;84.50;41.70;;;;;;;1.14;100.00;101778.69;15273800;19;21138;-48
2022/01/25 01:05:54;;;;;;;82.40;40.30;;;;;;;1.16;100.00;101774.31;15272896;19;20160;-50
2022/01/25 01:11:02;;;;;;;76.83;38.90;;;;;;;1.19;100.00;101777.81;15239956;19;20224;-51
2022/01/25 01:16:33;;;;;;;78.40;39.37;;;;;;;1.24;100.00;101775.16;15252459;19;20150;-49
2022/01/25 01:32:23;;;;;;;79.57;37.80;;;;;;;1.31;100.00;101755.88;15245069;19;20192;-51
2022/01/25 01:48:09;;;;;;;81.97;39.37;;;;;;;1.30;100.00;101754.13;15270893;19;20149;-48
2022/01/25 01:53:14;;;;;;;74.50;36.70;;;;;;;1.30;100.00;101738.34;15258035;19;20150;-47
2022/01/25 01:58:18;;;;;;;75.83;34.37;;;;;;;1.34;100.00;101734.78;15241958;19;20226;-47
2022/01/25 02:03:23;;;;;;;75.63;36.30;;;;;;;1.30;100.00;101728.69;15267673;19;20149;-49
2022/01/25 02:08:28;;;;;;;72.80;35.07;;;;;;;1.30;100.00;101730.44;15271636;19;20153;-48
2022/01/25 02:13:33;;;;;;;71.23;34.53;;;;;;;1.30;100.00;101738.34;15281388;19;20174;-50
2022/01/25 02:23:55;;;;;;;61.83;31.73;;;;;;;1.28;100.00;101719.06;15270740;19;20676;-51
2022/01/25 02:28:59;;;;;;;63.67;32.73;;;;;;;1.24;100.00;101706.78;15281994;19;20936;-48
2022/01/25 02:34:04;;;;;;;66.00;31.13;;;;;;;1.25;100.00;101705.91;15281165;19;20173;-48
2022/01/25 02:39:08;;;;;;;61.87;31.23;;;;;;;1.27;100.00;101693.63;15265211;19;20169;-52
2022/01/25 02:44:18;;;;;;;65.73;31.13;;;;;;;1.27;100.00;101696.25;15256766;19;20145;-49
2022/01/25 02:49:22;;;;;;;62.13;30.67;;;;;;;1.29;100.00;101690.13;15282547;19;20149;-49
2022/01/25 02:54:27;;;;;;;56.30;29.80;;;;;;;1.29;100.00;101690.13;15279690;19;20486;-47
2022/01/25 02:59:31;;;;;;;55.70;27.87;;;;;;;1.28;100.00;101698.88;15280097;19;20162;-51
2022/01/25 03:04:36;;;;;;;54.20;27.40;;;;;;;1.29;100.00;101679.59;15249387;19;20177;-47
2022/01/25 03:09:41;;;;;;;51.77;26.27;;;;;;;1.29;100.00;101678.72;15268748;19;20164;-48
2022/01/25 03:15:10;;;;;;;51.23;26.10;;;;;;;1.29;100.00;101676.09;15276826;19;20463;-48
2022/01/25 03:20:19;;;;;;;59.17;26.53;;;;;;;1.30;100.00;101664.69;15273937;19;20141;-51
2022/01/25 03:25:25;;;;;;;52.00;25.17;;;;;;;1.29;100.00;101657.69;15244474;19;20241;-47
2022/01/25 03:30:29;;;;;;;54.47;24.33;;;;;;;1.32;100.00;101657.69;15249135;19;20185;-50
2022/01/25 03:35:34;;;;;;;60.43;27.13;;;;;;;1.29;100.00;101641.91;15269879;19;20133;-50
2022/01/25 03:40:38;;;;;;;61.67;26.33;;;;;;;1.28;100.00;101645.44;15273421;19;20141;-48
2022/01/25 03:45:56;;;;;;;52.77;23.80;;;;;;;1.31;100.00;101634.91;15262147;19;20989;-49
2022/01/25 03:51:00;;;;;;;48.43;23.50;;;;;;;1.31;100.00;101629.63;15239199;19;20137;-50
2022/01/25 03:56:05;;;;;;;46.23;21.70;;;;;;;1.33;100.00;101636.59;15264036;19;20226;-48
2022/01/25 04:01:09;;;;;;;41.13;20.67;;;;;;;1.34;100.00;101629.59;15271824;19;20136;-48
2022/01/25 04:06:18;;;;;;;45.40;21.50;;;;;;;1.34;100.00;101624.34;15270705;19;20168;-50
2022/01/25 04:11:23;;;;;;;44.10;21.90;;;;;;;1.34;100.00;101616.44;15235648;19;20183;-50
2022/01/25 04:16:32;;;;;;;41.10;20.57;;;;;;;1.35;100.00;101605.03;15252289;19;20153;-48
2022/01/25 04:24:42;;;;;;;43.80;21.47;;;;;;;1.36;100.00;101583.13;15270003;19;20166;-48
2022/01/25 04:27:11;;;;;;;39.00;20.30;;;;;;;1.31;100.00;101571.78;15269932;19;20146;-48
2022/01/25 04:32:15;;;;;;;41.53;21.30;;;;;;;1.32;100.00;101563.88;15238019;19;20502;-47
2022/01/25 04:53:19;;;;;;;42.33;20.00;;;;;;;1.44;100.00;101557.69;15256210;19;20141;-47
2022/01/25 04:58:31;;;;;;;44.03;20.77;;;;;;;1.46;100.00;101545.34;15234250;19;20623;-48
2022/01/25 05:03:51;;;;;;;43.50;21.60;;;;;;;1.49;100.00;101547.09;15260540;19;20225;-49
2022/01/25 05:09:05;;;;;;;44.77;22.10;;;;;;;1.47;100.00;101551.50;15265234;19;20270;-48
2022/01/25 05:14:21;;;;;;;46.40;21.57;;;;;;;1.48;100.00;101538.34;15267180;19;20225;-47
2022/01/25 05:22:03;;;;;;;42.63;20.73;;;;;;;1.50;100.00;101536.56;15228620;19;20145;-49
2022/01/25 05:24:54;;;;;;;45.37;22.00;;;;;;;1.53;100.00;101547.06;15254578;19;20647;-50
2022/01/25 05:29:58;;;;;;;52.97;23.53;;;;;;;1.55;100.00;101532.16;15263205;19;20171;-48
2022/01/25 05:35:05;;;;;;;51.27;23.30;;;;;;;1.57;100.00;101529.53;15257891;19;20174;-46
2022/01/25 05:40:16;;;;;;;57.77;25.27;;;;;;;1.56;100.00;101526.00;15235231;19;21177;-50
2022/01/25 05:45:37;;;;;;;55.80;24.27;;;;;;;1.59;100.00;101525.97;15250628;19;20188;-47
2022/01/25 05:50:41;;;;;;;52.90;23.40;;;;;;;1.60;100.00;101522.44;15279184;19;20158;-47
2022/01/25 05:55:46;;;;;;;48.67;21.50;;;;;;;1.63;100.00;101532.09;15275527;19;20168;-47
2022/01/25 06:00:50;;;;;;;55.43;24.90;;;;;;;1.64;100.00;101539.97;15264218;19;20150;-47
2022/01/25 06:05:55;;;;;;;48.53;22.00;;;;;;;1.65;100.00;101527.69;15244827;19;20145;-47
2022/01/25 06:10:59;;;;;;;56.07;22.73;;;;;;;1.62;100.00;101531.22;15275551;19;20620;-50
2022/01/25 06:16:04;;;;;;;64.73;25.97;;;;;;;1.60;100.00;101527.72;15277164;19;20162;-48
2022/01/25 06:21:08;;;;;;;61.53;24.93;;;;;;;1.60;100.00;101521.56;15277698;19;20673;-48
2022/01/25 06:26:13;;;;;;;57.07;25.57;;;;;;;1.55;100.00;101524.28;15243838;19;20157;-47
2022/01/25 06:31:18;;;;;;;57.20;24.23;;;;;;;1.55;100.00;101521.63;15259748;19;20197;-46
2022/01/25 06:36:23;;;;;;;60.43;26.03;;;;;;;1.55;100.00;101511.13;15275946;19;20606;-49
2022/01/25 06:41:28;;;;;;;53.60;25.57;;;;;;;1.54;100.00;101522.53;15277095;19;20179;-53
2022/01/25 06:46:33;;;;;;;62.97;26.47;;;;;;;1.53;100.00;101499.72;15268731;19;20156;-49
2022/01/25 06:51:37;;;;;;;60.03;26.40;;;;;;;1.54;100.00;101503.22;15253988;19;20151;-49
2022/01/25 06:56:42;;;;;;;50.57;25.17;;;;;;;1.55;100.00;101495.34;15276085;19;20182;-48
2022/01/25 07:01:46;;;;;;;49.87;26.60;;;;;;;1.59;100.00;101473.34;15278577;19;20142;-48
2022/01/25 07:06:51;;;;;;;54.23;27.07;;;;;;;1.61;100.00;101487.38;15276338;19;20225;-50
2022/01/25 07:11:55;;;;;;;49.83;25.27;;;;;;;1.61;100.00;101492.63;15246357;19;20194;-47
2022/01/25 07:17:00;;;;;;;44.03;23.90;;;;;;;1.69;100.00;101506.59;15263194;19;20142;-48
2022/01/25 07:22:05;;;;;;;46.33;24.73;;;;;;;1.68;100.00;101502.22;15274446;19;20545;-48
2022/01/25 07:27:11;;;;;;;38.53;22.90;;;;;;;1.73;100.00;101495.16;15274778;19;20452;-48
2022/01/25 07:32:15;;;;;;;36.27;21.60;;;;;;;1.79;100.00;101492.47;15254002;19;20565;-50
2022/01/25 07:37:21;;;;;;;33.30;20.57;;;;;;;1.84;100.00;101483.66;15250661;19;20312;-49
2022/01/25 07:42:28;;;;;;;33.47;20.37;;;;;;;1.89;100.00;101490.63;15273652;19;20154;-50
2022/01/25 07:47:33;;;;;;;33.37;21.23;;;;;;;1.89;100.00;101481.84;15272810;19;20148;-49
2022/01/25 07:52:39;;;;;;;35.23;21.33;;;;;;;1.91;100.00;101485.34;15267048;19;20141;-51
2022/01/25 07:57:44;;;;;;;33.27;21.03;;;;;;;1.97;100.00;101472.09;15240614;19;20176;-52
2022/01/25 08:02:51;;;;;;;31.33;21.13;;;;;;;1.96;100.00;101479.13;15267002;19;20159;-50
2022/01/25 08:07:59;;;;;;;35.63;22.60;;;;;;;1.96;100.00;101462.47;15269207;19;20158;-52
2022/01/25 08:13:04;;;;;;;32.90;22.10;;;;;;;1.98;100.00;101463.31;15265373;19;20162;-54
2022/01/25 08:18:16;;;;;;;34.33;21.47;;;;;;;2.01;100.00;101464.16;15243856;19;20170;-54
2022/01/25 08:23:23;;;;;;;34.20;22.20;;;;;;;2.06;100.00;101458.84;15259673;19;20163;-51
2022/01/25 08:28:32;;;;;;;29.77;19.77;;;;;;;2.07;100.00;101447.41;15271886;19;20496;-50
2022/01/25 08:33:39;;;;;;;53.97;41.07;;;;;;;2.12;100.00;101453.50;15272539;19;20162;-49
2022/01/25 08:38:48;;;;;;;53.20;40.23;;;;;;;2.26;100.00;101441.06;15261686;19;20218;-51
2022/01/25 08:44:01;;;;;;;55.27;43.13;;;;;;;2.29;100.00;101446.31;15245994;19;20185;-50
2022/01/25 08:49:07;;;;;;;29.33;22.70;;;;;;;2.39;100.00;101445.28;15258539;19;20908;-53
2022/01/25 08:54:12;;;;;;;27.10;19.13;;;;;;;2.45;100.00;101441.69;15265447;19;20171;-51
2022/01/25 08:59:16;;;;;;;21.73;16.87;;;;;;;2.54;100.00;101431.88;15266493;19;20147;-50
2022/01/25 09:04:21;;;;;;;19.90;15.23;;;;;;;2.56;100.00;101431.00;15242330;19;20143;-51
2022/01/25 09:09:25;;;;;;;21.60;15.63;;;;;;;2.57;100.00;101425.72;15257800;19;20605;-51
2022/01/25 09:14:30;;;;;;;18.83;15.17;;;;;;;2.65;100.00;101417.72;15264656;19;20172;-51
2022/01/25 09:19:34;;;;;;;19.93;15.50;;;;;;;2.68;100.00;101407.13;15274302;19;20523;-49
2022/01/25 09:24:39;;;;;;;18.70;14.80;;;;;;;2.63;100.00;101406.31;15265279;19;20155;-51
2022/01/25 09:29:44;;;;;;;27.67;21.00;;;;;;;2.69;100.00;101415.00;15260271;19;20187;-49
2022/01/25 09:34:49;;;;;;;20.40;15.70;;;;;;;2.65;100.00;101412.44;15275187;19;20839;-50
2022/01/25 09:39:54;;;;;;;20.80;16.80;;;;;;;2.71;100.00;101412.34;15277831;19;20621;-52
2022/01/25 09:44:59;;;;;;;21.03;16.67;;;;;;;2.64;100.00;101408.06;15274309;19;20903;-51
2022/01/25 09:50:03;;;;;;;21.00;16.40;;;;;;;2.69;100.00;101424.66;15254963;19;20154;-52
2022/01/25 09:55:12;;;;;;;19.90;16.17;;;;;;;2.66;100.00;101420.31;15273453;19;20857;-49
2022/01/25 10:00:20;;;;;;;19.73;16.73;;;;;;;2.68;100.00;101417.66;15280170;19;20143;-52
2022/01/25 10:05:33;;;;;;;17.90;15.07;;;;;;;2.72;100.00;101406.19;15276903;19;20501;-49
2022/01/25 10:10:45;;;;;;;17.57;13.57;;;;;;;2.75;100.00;101401.75;15255144;19;20156;-49
2022/01/25 10:15:52;;;;;;;15.57;13.23;;;;;;;2.83;100.00;101404.25;15264838;19;20203;-51
2022/01/25 10:20:58;;;;;;;17.20;14.37;;;;;;;2.81;100.00;101406.91;15276908;19;20149;-49
2022/01/25 10:26:04;;;;;;;17.53;14.60;;;;;;;2.77;100.00;101415.78;15277607;19;20159;-52
2022/01/25 10:31:09;;;;;;;16.80;14.70;;;;;;;2.84;100.00;101403.38;15258786;19;20666;-51
2022/01/25 10:36:17;;;;;;;17.17;14.33;;;;;;;2.85;100.00;101399.84;15256759;19;20164;-51
2022/01/25 10:41:24;;;;;;;18.53;15.17;;;;;;;2.84;100.00;101408.63;15275934;19;20158;-52
2022/01/25 10:46:31;;;;;;;16.00;13.33;;;;;;;2.71;100.00;101381.59;15273439;19;20617;-49
2022/01/25 10:51:44;;;;;;;15.03;12.40;;;;;;;2.88;100.00;101405.06;15274803;19;20167;-51
2022/01/25 10:56:53;;;;;;;14.53;12.93;;;;;;;2.88;100.00;101394.53;15247834;19;20237;-51
2022/01/25 11:02:01;;;;;;;16.67;13.40;;;;;;;2.92;100.00;101393.56;15269284;19;20598;-51
2022/01/25 11:07:11;;;;;;;15.03;12.70;;;;;;;2.99;100.00;101392.59;15276108;19;20140;-51
2022/01/25 11:12:19;;;;;;;14.03;12.07;;;;;;;3.06;100.00;101396.84;15277966;19;20141;-51
2022/01/25 11:17:29;;;;;;;14.03;12.37;;;;;;;3.17;100.00;101391.41;15249919;19;20144;-51
2022/01/25 11:22:33;;;;;;;14.53;12.67;;;;;;;3.20;100.00;101389.59;15260755;19;20206;-50
2022/01/25 11:27:39;;;;;;;14.87;12.63;;;;;;;3.20;100.00;101386.94;15276572;19;20140;-50
2022/01/25 11:32:46;;;;;;;17.10;15.17;;;;;;;3.24;100.00;101383.38;15276635;19;20157;-52
2022/01/25 11:37:52;;;;;;;16.00;14.30;;;;;;;3.36;100.00;101370.88;15259688;19;20157;-52
2022/01/25 11:43:02;;;;;;;16.87;14.70;;;;;;;3.40;100.00;101373.41;15246784;19;20959;-51
2022/01/25 11:48:07;;;;;;;15.30;12.93;;;;;;;3.49;100.00;101369.75;15270539;19;20625;-52
2022/01/25 11:53:17;;;;;;;20.93;14.40;;;;;;;3.52;100.00;101361.75;15273640;19;20184;-51
2022/01/25 11:58:31;;;;;;;27.70;15.87;;;;;;;3.59;100.00;101352.84;15272718;19;20169;-52
2022/01/25 12:03:39;;;;;;;24.30;15.47;;;;;;;3.77;100.00;101356.88;15246936;19;20630;-53
2022/01/25 12:09:07;;;;;;;16.90;12.93;;;;;;;3.91;100.00;101355.72;15267176;19;20165;-56
2022/01/25 12:14:17;;;;;;;13.17;11.67;;;;;;;3.93;100.00;101353.91;15270697;19;20508;-57
2022/01/25 12:19:39;;;;;;;12.00;10.70;;;;;;;3.91;100.00;101365.41;15272767;19;20476;-55
2022/01/25 12:24:50;;;;;;;13.80;10.80;;;;;;;3.76;100.00;101356.00;15253539;19;20152;-55
2022/01/25 12:30:08;;;;;;;11.03;9.93;;;;;;;3.77;100.00;101346.31;15258096;19;20181;-55
2022/01/25 12:35:15;;;;;;;13.03;11.37;;;;;;;3.68;100.00;101341.22;15272488;19;20272;-57
2022/01/25 12:40:26;;;;;;;14.23;11.93;;;;;;;3.60;100.00;101323.78;15274376;19;20663;-57
2022/01/25 12:45:33;;;;;;;11.97;10.77;;;;;;;3.65;100.00;101326.31;15257864;19;20132;-54
2022/01/25 12:50:43;;;;;;;12.40;10.67;;;;;;;3.64;100.00;101321.94;15245119;19;20161;-54
2022/01/25 12:55:52;;;;;;;14.15;11.30;;;;;;;3.68;100.00;101326.25;15267143;19;20380;-53
2022/01/25 13:01:02;;;;;;;12.30;10.50;;;;;;;3.63;100.00;101317.56;15273790;19;20209;-55
2022/01/25 13:06:15;;;;;;;11.20;9.60;;;;;;;3.62;100.00;101318.47;15270152;19;20400;-55
2022/01/25 13:11:28;;;;;;;12.67;10.37;;;;;;;3.51;100.00;101318.66;15240749;19;20164;-58
2022/01/25 13:16:47;;;;;;;13.37;10.93;;;;;;;3.36;100.00;101318.09;15258389;19;20189;-57
2022/01/25 13:21:56;;;;;;;12.37;9.97;;;;;;;3.30;100.00;101320.84;15270407;19;20144;-60
2022/01/25 13:27:13;;;;;;;11.40;9.83;;;;;;;3.19;100.00;101323.69;15270139;19;20159;-58
2022/01/25 13:32:26;;;;;;;13.93;10.77;;;;;;;3.11;100.00;101315.03;15240622;19;20557;-57
2022/01/25 13:37:31;;;;;;;12.70;10.87;;;;;;;3.07;100.00;101318.63;15250571;19;20179;-59
2022/01/25 13:42:42;;;;;;;15.13;11.47;;;;;;;3.08;100.00;101326.50;15266503;19;20163;-56
2022/01/25 13:48:01;;;;;;;13.10;10.30;;;;;;;3.07;100.00;101316.84;15268281;19;20145;-55
2022/01/25 13:53:06;;;;;;;14.73;10.57;;;;;;;3.05;100.00;101318.63;15255073;19;20147;-58
2022/01/25 13:58:31;;;;;;;14.27;10.90;;;;;;;3.04;100.00;101311.63;15236914;19;20147;-57
2022/01/25 14:03:39;;;;;;;13.27;11.20;;;;;;;2.98;100.00;101311.75;15270073;19;20179;-58
2022/01/25 14:08:45;;;;;;;16.73;11.73;;;;;;;2.97;100.00;101314.41;15282733;19;21152;-56
2022/01/25 14:24:36;;;;;;;15.93;12.20;;;;;;;2.94;100.00;101323.22;15267389;19;20722;-58
2022/01/25 14:29:42;;;;;;;14.07;11.90;;;;;;;2.91;100.00;101318.00;15272455;19;20181;-57
2022/01/25 14:34:47;;;;;;;21.07;15.47;;;;;;;2.90;100.00;101324.16;15275427;19;20140;-57
2022/01/25 14:39:51;;;;;;;20.70;16.63;;;;;;;2.91;100.00;101325.91;15244783;19;20145;-56
2022/01/25 14:44:56;;;;;;;17.40;13.97;;;;;;;2.92;100.00;101317.09;15257065;19;20177;-58
2022/01/25 14:50:01;;;;;;;20.03;15.53;;;;;;;2.92;100.00;101316.25;15275822;19;20158;-57
2022/01/25 14:55:20;;;;;;;19.37;14.97;;;;;;;2.87;100.00;101313.69;15272900;19;20141;-56
2022/01/25 15:00:29;;;;;;;20.63;14.90;;;;;;;2.85;100.00;101326.03;15261230;19;20160;-56
2022/01/25 15:05:34;;;;;;;19.83;14.97;;;;;;;2.83;100.00;101330.44;15245265;19;20154;-56
2022/01/25 15:10:44;;;;;;;21.17;14.40;;;;;;;2.78;100.00;101334.91;15271189;19;20171;-58
2022/01/25 15:15:55;;;;;;;16.00;13.13;;;;;;;2.81;100.00;101332.25;15270299;19;20141;-57
2022/01/25 15:21:02;;;;;;;17.93;13.87;;;;;;;2.81;100.00;101334.88;15271119;19;20175;-57
2022/01/25 15:26:12;;;;;;;20.60;14.90;;;;;;;2.79;100.00;101337.53;15240351;19;20173;-58
2022/01/25 15:31:26;;;;;;;22.07;15.50;;;;;;;2.78;100.00;101329.66;15263064;19;20180;-58
2022/01/25 15:36:36;;;;;;;21.77;15.93;;;;;;;2.79;100.00;101331.38;15273030;19;20232;-57
2022/01/25 15:41:40;;;;;;;22.07;16.43;;;;;;;2.77;100.00;101325.28;15275486;19;20669;-56
2022/01/25 15:46:59;;;;;;;29.97;20.10;;;;;;;2.79;100.00;101341.94;15250497;19;20171;-56
2022/01/25 15:52:04;;;;;;;20.77;15.43;;;;;;;2.73;100.00;101327.09;15258449;19;20147;-57
2022/01/25 15:57:10;;;;;;;30.37;18.67;;;;;;;2.72;100.00;101335.03;15275053;19;20149;-57
2022/01/25 16:02:15;;;;;;;32.97;19.67;;;;;;;2.70;100.00;101332.41;15275870;19;20147;-57
2022/01/25 16:07:21;;;;;;;27.43;19.10;;;;;;;2.64;100.00;101329.03;15262830;19;20160;-58
2022/01/25 16:12:28;;;;;;;26.73;18.77;;;;;;;2.65;100.00;101322.84;15246955;19;20173;-56
2022/01/25 16:17:32;;;;;;;22.30;15.93;;;;;;;2.66;100.00;101337.75;15266155;19;20668;-58
2022/01/25 16:22:37;;;;;;;22.63;16.47;;;;;;;2.68;100.00;101335.97;15274536;19;20921;-59
2022/01/25 16:27:42;;;;;;;26.87;18.10;;;;;;;2.69;100.00;101335.06;15265962;19;20209;-57
2022/01/25 16:32:47;;;;;;;25.03;18.60;;;;;;;2.71;100.00;101343.81;15236287;19;20167;-55
2022/01/25 16:37:53;;;;;;;23.97;17.67;;;;;;;2.69;100.00;101335.94;15255336;19;20283;-57
2022/01/25 16:42:57;;;;;;;18.83;15.00;;;;;;;2.73;100.00;101336.78;15268547;19;20157;-56
2022/01/25 16:48:02;;;;;;;17.37;14.47;;;;;;;2.78;100.00;101337.53;15269629;19;20148;-58
2022/01/25 16:53:08;;;;;;;17.97;15.07;;;;;;;2.81;100.00;101345.41;15235849;19;20155;-55
2022/01/25 16:58:16;;;;;;;19.40;14.43;;;;;;;2.84;100.00;101340.09;15239939;19;20224;-57
2022/01/25 17:03:21;;;;;;;23.27;16.80;;;;;;;2.84;100.00;101340.97;15267030;19;20155;-55
2022/01/25 17:08:26;;;;;;;20.50;15.57;;;;;;;2.82;100.00;101348.03;15265870;19;20600;-57
2022/01/25 17:13:30;;;;;;;20.20;15.40;;;;;;;2.84;100.00;101345.38;15265810;19;20634;-56
2022/01/25 17:18:35;;;;;;;18.03;14.30;;;;;;;2.80;100.00;101341.03;15233701;19;20160;-57
2022/01/25 17:23:39;;;;;;;18.97;14.90;;;;;;;2.83;100.00;101344.50;15256781;19;20175;-57
2022/01/25 17:28:44;;;;;;;16.33;14.00;;;;;;;2.85;100.00;101352.38;15266303;19;20190;-57
2022/01/25 17:33:48;;;;;;;17.67;15.27;;;;;;;2.85;100.00;101340.09;15266467;19;20155;-55
2022/01/25 17:38:53;;;;;;;19.03;15.07;;;;;;;2.82;100.00;101344.53;15245289;19;20163;-57
2022/01/25 17:43:57;;;;;;;18.87;14.33;;;;;;;2.84;100.00;101348.00;15261397;19;20201;-56
2022/01/25 17:49:02;;;;;;;21.40;15.43;;;;;;;2.87;100.00;101342.69;15278092;19;20185;-52
2022/01/25 17:54:08;;;;;;;19.50;15.33;;;;;;;2.90;100.00;101347.91;15276537;19;20165;-54
2022/01/25 17:59:13;;;;;;;21.70;17.17;;;;;;;2.85;100.00;101341.84;15265402;19;20248;-59
2022/01/25 18:04:19;;;;;;;20.60;16.83;;;;;;;2.94;100.00;101349.59;15248824;19;20180;-53
2022/01/25 18:09:23;;;;;;;22.97;17.00;;;;;;;2.98;100.00;101347.78;15270524;19;20746;-54
2022/01/25 18:14:28;;;;;;;29.97;20.50;;;;;;;2.97;100.00;101352.19;15272639;19;20156;-54
2022/01/25 18:19:33;;;;;;;31.80;22.07;;;;;;;2.92;100.00;101351.38;15270589;19;20887;-53
2022/01/25 18:24:47;;;;;;;26.93;20.80;;;;;;;2.95;100.00;101359.25;15252734;19;20159;-55
2022/01/25 18:29:51;;;;;;;24.70;18.33;;;;;;;2.94;100.00;101351.34;15258840;19;20251;-58
2022/01/25 18:34:56;;;;;;;27.00;19.77;;;;;;;2.92;100.00;101354.03;15273398;19;20157;-56
2022/01/25 18:40:01;;;;;;;27.00;20.77;;;;;;;2.92;100.00;101338.19;15269490;19;20635;-55
2022/01/25 18:45:06;;;;;;;35.13;23.50;;;;;;;2.88;100.00;101347.06;15247117;19;20181;-55
2022/01/25 18:50:12;;;;;;;33.13;22.80;;;;;;;2.85;100.00;101336.56;15214796;19;20240;-54
2022/01/25 18:55:17;;;;;;;30.43;22.83;;;;;;;2.82;100.00;101349.78;15239754;19;20149;-53
2022/01/25 19:00:22;;;;;;;29.40;22.77;;;;;;;2.81;100.00;101350.69;15232418;19;20617;-54
2022/01/25 19:05:29;;;;;;;31.80;22.77;;;;;;;2.81;100.00;101342.78;15240374;19;20148;-57
2022/01/25 19:10:34;;;;;;;34.40;24.23;;;;;;;2.80;100.00;101334.00;15204670;19;20185;-52
2022/01/25 19:15:38;;;;;;;33.83;24.17;;;;;;;2.76;100.00;101334.97;15230647;19;20218;-52
2022/01/25 19:20:43;;;;;;;41.30;25.57;;;;;;;2.70;100.00;101331.53;15226521;19;20157;-55
2022/01/25 19:25:48;;;;;;;38.73;23.67;;;;;;;2.80;100.00;101348.94;15233660;19;20148;-56
2022/01/25 19:30:53;;;;;;;35.60;22.77;;;;;;;2.78;100.00;101340.19;15211534;19;20698;-52
2022/01/25 19:35:59;;;;;;;32.53;21.17;;;;;;;2.79;100.00;101341.94;15217284;19;20167;-55
2022/01/25 19:41:05;;;;;;;30.40;21.33;;;;;;;2.81;100.00;101353.31;15227990;19;20152;-56
2022/01/25 19:46:10;;;;;;;27.10;20.63;;;;;;;2.85;100.00;101336.56;15231819;19;20164;-53
2022/01/25 19:51:17;;;;;;;26.37;20.73;;;;;;;2.86;100.00;101338.31;15228000;19;20148;-51
2022/01/25 19:56:23;;;;;;;26.77;20.13;;;;;;;2.86;100.00;101343.59;15230395;19;20195;-50
2022/01/25 20:01:29;;;;;;;26.63;19.50;;;;;;;2.90;100.00;101340.84;15262402;19;20674;-52
2022/01/25 20:06:34;;;;;;;27.30;20.00;;;;;;;2.91;100.00;101352.28;15268923;19;20143;-53
2022/01/25 20:11:39;;;;;;;26.17;19.40;;;;;;;2.95;100.00;101347.84;15273232;19;20147;-55
2022/01/25 20:16:48;;;;;;;24.97;19.47;;;;;;;2.97;100.00;101348.69;15251072;19;20193;-51
2022/01/25 20:21:58;;;;;;;24.60;19.70;;;;;;;2.99;100.00;101342.50;15257162;19;20701;-56
2022/01/25 20:27:09;;;;;;;28.03;19.97;;;;;;;2.99;100.00;101360.94;15264589;19;20598;-51
2022/01/25 20:32:14;;;;;;;24.00;19.53;;;;;;;2.99;100.00;101339.84;15264009;19;20204;-53
2022/01/25 20:37:18;;;;;;;25.57;18.90;;;;;;;2.98;100.00;101343.38;15261002;19;20148;-54
2022/01/25 20:42:23;;;;;;;28.90;20.47;;;;;;;2.97;100.00;101348.69;15249761;19;20152;-53
2022/01/25 20:47:28;;;;;;;28.57;22.20;;;;;;;2.98;100.00;101347.78;15271254;19;20160;-54
2022/01/25 20:52:32;;;;;;;28.40;21.10;;;;;;;2.95;100.00;101353.97;15271104;19;20151;-53
2022/01/25 20:57:37;;;;;;;27.80;21.20;;;;;;;2.91;100.00;101347.00;15270866;19;20264;-55
2022/01/25 21:03:07;;;;;;;30.97;22.80;;;;;;;2.85;100.00;101347.13;15246111;19;20171;-56
2022/01/25 21:08:13;;;;;;;30.70;22.30;;;;;;;2.83;100.00;101343.63;15264837;19;20278;-54
2022/01/25 21:13:17;;;;;;;27.53;20.63;;;;;;;2.83;100.00;101339.22;15272104;19;20143;-51
2022/01/25 21:18:22;;;;;;;26.07;20.40;;;;;;;2.84;100.00;101350.66;15285452;19;20148;-51
2022/01/25 21:23:27;;;;;;;31.60;22.80;;;;;;;2.90;100.00;101345.25;15267373;19;20198;-55
2022/01/25 21:28:31;;;;;;;29.17;22.20;;;;;;;2.96;100.00;101334.63;15268755;19;20638;-52
2022/01/25 21:33:36;;;;;;;29.90;22.27;;;;;;;3.00;100.00;101351.28;15286826;19;20155;-53
2022/01/25 21:38:41;;;;;;;27.17;21.77;;;;;;;3.01;100.00;101343.34;15284687;19;20176;-55
2022/01/25 21:43:45;;;;;;;26.27;20.07;;;;;;;3.03;100.00;101343.28;15269129;19;20153;-55
2022/01/25 21:48:50;;;;;;;29.33;22.13;;;;;;;3.03;100.00;101345.94;15254669;19;20160;-55
2022/01/25 21:53:56;;;;;;;29.50;22.17;;;;;;;2.96;100.00;101321.44;15269711;19;20735;-52
2022/01/25 21:59:00;;;;;;;30.50;20.97;;;;;;;3.02;100.00;101329.22;15281055;19;20148;-53
2022/01/25 22:04:09;;;;;;;28.13;21.70;;;;;;;2.97;100.00;101328.47;15282836;19;20173;-54
2022/01/25 22:09:18;;;;;;;29.50;21.57;;;;;;;2.88;100.00;101332.13;15259253;19;20151;-55
2022/01/25 22:14:30;;;;;;;30.87;22.33;;;;;;;2.91;100.00;101325.91;15272206;19;20526;-58
2022/01/25 22:19:35;;;;;;;28.03;20.60;;;;;;;2.94;100.00;101330.28;15282309;19;20144;-55
2022/01/25 22:24:40;;;;;;;26.97;21.00;;;;;;;2.93;100.00;101324.13;15283690;19;20145;-54
2022/01/25 22:29:44;;;;;;;28.67;21.53;;;;;;;2.86;100.00;101318.09;15266127;19;20187;-52
2022/01/25 22:34:48;;;;;;;29.67;20.60;;;;;;;2.76;100.00;101316.53;15258603;19;20152;-54
2022/01/25 22:39:53;;;;;;;28.83;20.00;;;;;;;2.70;100.00;101315.72;15280556;19;20151;-55
2022/01/25 22:44:57;;;;;;;27.83;20.63;;;;;;;2.69;100.00;101314.84;15282758;19;20152;-52
2022/01/25 22:50:02;;;;;;;26.37;20.20;;;;;;;2.64;100.00;101315.84;15280874;19;20512;-54
2022/01/25 22:55:08;;;;;;;29.00;20.07;;;;;;;2.65;100.00;101312.31;15254126;19;20700;-58
2022/01/25 23:00:41;;;;;;;29.77;19.90;;;;;;;2.66;100.00;101319.28;15266069;19;20156;-57
2022/01/25 23:05:51;;;;;;;28.73;20.43;;;;;;;2.65;100.00;101312.31;15281388;19;20705;-51
2022/01/25 23:10:56;;;;;;;37.53;21.67;;;;;;;2.62;100.00;101312.34;15281149;19;20148;-50
2022/01/25 23:16:04;;;;;;;34.97;21.50;;;;;;;2.59;100.00;101299.22;15256407;19;20641;-52
2022/01/25 23:21:11;;;;;;;33.13;22.33;;;;;;;2.54;100.00;101297.53;15262086;19;20148;-55
2022/01/25 23:26:15;;;;;;;30.70;21.40;;;;;;;2.53;100.00;101302.84;15280554;19;20541;-51
2022/01/25 23:36:45;;;;;;;30.43;20.40;;;;;;;2.47;100.00;101290.63;15268232;19;20592;-53
2022/01/25 23:41:54;;;;;;;25.87;18.60;;;;;;;2.49;100.00;101286.19;15251689;19;20176;-56
2022/01/25 23:47:05;;;;;;;29.00;19.33;;;;;;;2.47;100.00;101292.38;15277151;19;20156;-53
2022/01/25 23:54:03;;;;;;;26.47;19.80;;;;;;;2.45;100.00;101295.03;15277982;19;20270;-54
